Terminal Aerodrome Forecast
Issued by NWS Missoula, MT

Home | Current Version | Previous Version | Text Only | Print | Product List | Glossary On
Versions: 1 2 3 4 5 6 7 8 9 10 11 12 13 14 15 16 17 18 19 20
531
FTUS45 KMSO 250143 AAA
TAFGPI
TAF AMD
KGPI 250143Z 2502/2524 18005KT P6SM BKN060
     FM251200 16003KT 6SM BR VCFG SCT004 BKN070
     FM251800 18005KT P6SM SCT100=

USA.gov is the U.S. government's official web portal to all federal, state and local government web resources and services.